Time;durP1;ratioP1;P1;durP2;ratioP2;P2;SDS_P1;SDS_P2;PMS_P1;PMS_P2;Temp;Humidity;BMP_temperature;BMP_pressure;BME280_temperature;BME280_humidity;BME280_pressure;Samples;Min_cycle;Max_cycle;Signal;HPM_P1;HPM_P2
2022/01/27 00:00:34;;;;;;;;;;;-0.50;99.90;;;;;;4102533;28;20380;-44
2022/01/27 00:05:03;;;;;;;;;;;-0.60;99.90;;;;;;4107800;28;19934;-47
2022/01/27 00:07:05;;;;;;;;;;;-0.50;99.90;;;;;;4110658;28;19926;-46
2022/01/27 00:11:18;;;;;;;;;;;-0.50;99.90;;;;;;4168821;28;19982;-47
2022/01/27 00:13:25;;;;;;;;;;;-0.70;99.90;;;;;;4176014;28;19924;-44
2022/01/27 00:15:32;;;;;;;;;;;-0.60;99.90;;;;;;4166446;28;19936;-46
2022/01/27 00:17:39;;;;;;;;;;;-0.80;99.90;;;;;;4174271;28;19970;-47
2022/01/27 00:19:42;;;;;;;;;;;-0.90;99.90;;;;;;4167299;28;19925;-46
2022/01/27 00:21:44;;;;;;;;;;;-0.90;99.90;;;;;;4179002;28;19968;-44
2022/01/27 00:23:46;;;;;;;;;;;-0.90;99.90;;;;;;4169829;28;19968;-45
2022/01/27 00:25:48;;;;;;;;;;;-0.90;99.90;;;;;;4174860;28;20304;-45
2022/01/27 00:27:50;;;;;;;;;;;-1.10;99.90;;;;;;4178861;28;20007;-44
2022/01/27 00:29:52;;;;;;;;;;;-0.90;99.90;;;;;;4172309;28;19929;-45
2022/01/27 00:31:54;;;;;;;;;;;-1.00;99.90;;;;;;4164394;28;19933;-45
2022/01/27 00:33:57;;;;;;;;;;;-1.00;99.90;;;;;;4178552;28;19936;-45
2022/01/27 00:35:59;;;;;;;;;;;-1.10;99.90;;;;;;4174123;28;19928;-46
2022/01/27 00:38:02;;;;;;;;;;;-1.00;99.90;;;;;;4166256;28;19928;-43
2022/01/27 00:40:05;;;;;;;;;;;-1.10;99.90;;;;;;4167928;28;19932;-45
2022/01/27 00:42:07;;;;;;;;;;;-1.20;99.90;;;;;;4176565;28;20458;-45
2022/01/27 00:44:09;;;;;;;;;;;-1.10;99.90;;;;;;4159150;28;19925;-44
2022/01/27 00:46:15;;;;;;;;;;;-1.10;99.90;;;;;;4178436;28;20343;-45
2022/01/27 00:48:17;;;;;;;;;;;-1.10;99.90;;;;;;4177167;28;19925;-44
2022/01/27 00:50:19;;;;;;;;;;;-1.20;99.90;;;;;;4176872;28;19929;-46
2022/01/27 00:52:33;;;;;;;;;;;-1.20;99.90;;;;;;4178073;28;19951;-45
2022/01/27 00:54:35;;;;;;;;;;;-1.20;99.90;;;;;;4176461;28;19951;-46
2022/01/27 00:56:47;;;;;;;;;;;-1.30;99.90;;;;;;4178401;28;19932;-44
2022/01/27 01:01:33;;;;;;;;;;;-1.20;99.90;;;;;;4139301;28;19929;-46
2022/01/27 01:03:40;;;;;;;;;;;-1.30;99.90;;;;;;4140509;28;19971;-46
2022/01/27 01:06:02;;;;;;;;;;;-1.30;99.90;;;;;;4128427;28;19968;-44
2022/01/27 01:09:55;;;;;;;;;;;-1.30;99.90;;;;;;4140910;28;19925;-44
2022/01/27 01:15:01;;;;;;;;;;;-1.60;99.90;;;;;;4134324;28;20451;-43
2022/01/27 01:31:27;;;;;;;;;;;-1.60;99.90;;;;;;4140314;28;19934;-47
2022/01/27 01:33:34;;;;;;;;;;;-1.70;99.90;;;;;;4134724;28;19965;-46
2022/01/27 01:35:48;;;;;;;;;;;-1.70;99.90;;;;;;4150689;28;20388;-47
2022/01/27 01:37:50;;;;;;;;;;;-1.80;99.90;;;;;;4172713;28;20320;-47
2022/01/27 01:39:53;;;;;;;;;;;-1.70;99.90;;;;;;4168487;28;20369;-46
2022/01/27 01:41:55;;;;;;;;;;;-1.80;99.90;;;;;;4176387;28;19933;-46
2022/01/27 01:43:57;;;;;;;;;;;-1.80;99.90;;;;;;4175931;28;19971;-48
2022/01/27 01:46:00;;;;;;;;;;;-1.70;99.90;;;;;;4175946;28;19932;-47
2022/01/27 01:48:02;;;;;;;;;;;-1.80;99.90;;;;;;4165755;28;19936;-45
2022/01/27 01:50:05;;;;;;;;;;;-1.90;99.90;;;;;;4155893;28;19936;-44
2022/01/27 01:52:07;;;;;;;;;;;-1.80;99.90;;;;;;4177304;28;19957;-46
2022/01/27 01:54:10;;;;;;;;;;;-1.80;99.90;;;;;;4175892;28;19936;-46
2022/01/27 01:56:12;;;;;;;;;;;-1.90;99.90;;;;;;4173474;28;19928;-46
2022/01/27 01:58:14;;;;;;;;;;;-1.90;99.90;;;;;;4162992;28;19929;-45
2022/01/27 02:00:16;;;;;;;;;;;-1.90;99.90;;;;;;4158092;28;19979;-48
2022/01/27 02:02:18;;;;;;;;;;;-1.90;99.90;;;;;;4175188;28;19967;-49
2022/01/27 02:04:20;;;;;;;;;;;-1.90;99.90;;;;;;4176923;28;20019;-48
2022/01/27 02:06:31;;;;;;;;;;;-1.80;99.90;;;;;;4167714;28;20001;-49
2022/01/27 02:09:01;;;;;;;;;;;-1.90;99.90;;;;;;4168031;28;19933;-50
2022/01/27 02:18:01;;;;;;;;;;;-1.70;99.90;;;;;;4172307;28;19933;-48
2022/01/27 02:20:09;;;;;;;;;;;-1.70;99.90;;;;;;4175921;28;19925;-50
2022/01/27 02:22:11;;;;;;;;;;;-1.60;99.90;;;;;;4175073;28;20023;-50
2022/01/27 02:24:13;;;;;;;;;;;-1.50;99.90;;;;;;4175402;28;19979;-48
2022/01/27 02:26:15;;;;;;;;;;;-1.50;99.90;;;;;;4174215;28;20040;-50
2022/01/27 02:28:17;;;;;;;;;;;-1.50;99.90;;;;;;4175493;28;20367;-50
2022/01/27 02:30:19;;;;;;;;;;;-1.50;99.90;;;;;;4173443;28;19956;-51
2022/01/27 02:32:22;;;;;;;;;;;-1.50;99.90;;;;;;4176723;28;19929;-48
2022/01/27 02:34:25;;;;;;;;;;;-1.60;99.90;;;;;;4175594;28;19960;-50
2022/01/27 02:36:27;;;;;;;;;;;-1.70;99.90;;;;;;4173308;28;19933;-49
2022/01/27 02:38:29;;;;;;;;;;;-1.60;99.90;;;;;;4177337;28;19975;-50
2022/01/27 02:40:39;;;;;;;;;;;-1.70;99.90;;;;;;4175928;28;19933;-50
2022/01/27 02:42:40;;;;;;;;;;;-1.70;99.90;;;;;;4173727;28;20556;-50
2022/01/27 02:44:45;;;;;;;;;;;-1.80;99.90;;;;;;4176194;28;19925;-50
2022/01/27 02:46:49;;;;;;;;;;;-1.80;99.90;;;;;;4174590;28;20190;-50
2022/01/27 02:48:51;;;;;;;;;;;-1.70;99.90;;;;;;4174195;28;19998;-47
2022/01/27 02:50:53;;;;;;;;;;;-1.70;99.90;;;;;;4175530;28;19928;-47
2022/01/27 02:52:55;;;;;;;;;;;-1.80;99.90;;;;;;4168962;28;20019;-47
2022/01/27 02:54:57;;;;;;;;;;;-1.80;99.90;;;;;;4174040;28;19925;-47
2022/01/27 02:56:59;;;;;;;;;;;-1.70;99.90;;;;;;4176854;28;19929;-47
2022/01/27 02:59:01;;;;;;;;;;;-1.80;99.90;;;;;;4174795;28;20404;-47
2022/01/27 03:01:04;;;;;;;;;;;-1.80;99.90;;;;;;4176259;28;19932;-47
2022/01/27 03:03:06;;;;;;;;;;;-1.90;99.90;;;;;;4176055;28;19970;-50
2022/01/27 03:05:08;;;;;;;;;;;-1.80;99.90;;;;;;4174321;28;19929;-51
2022/01/27 03:07:10;;;;;;;;;;;-1.90;99.90;;;;;;4175311;28;19931;-48
2022/01/27 03:09:12;;;;;;;;;;;-2.00;99.90;;;;;;4169948;28;19925;-50
2022/01/27 03:11:17;;;;;;;;;;;-2.10;99.90;;;;;;4174817;28;19983;-47
2022/01/27 03:13:19;;;;;;;;;;;-2.10;99.90;;;;;;4175493;28;19925;-48
2022/01/27 03:15:21;;;;;;;;;;;-2.00;99.90;;;;;;4176898;28;19982;-49
2022/01/27 03:17:23;;;;;;;;;;;-1.80;99.90;;;;;;4174434;28;19978;-46
2022/01/27 03:19:25;;;;;;;;;;;-2.00;99.90;;;;;;4173395;28;19933;-47
2022/01/27 03:21:28;;;;;;;;;;;-2.00;99.90;;;;;;4176862;28;19971;-47
2022/01/27 03:23:30;;;;;;;;;;;-2.10;99.90;;;;;;4174024;28;20010;-51
2022/01/27 03:25:32;;;;;;;;;;;-2.30;99.90;;;;;;4173290;28;19932;-50
2022/01/27 03:27:34;;;;;;;;;;;-2.40;99.90;;;;;;4175296;28;19971;-48
2022/01/27 03:29:36;;;;;;;;;;;-2.40;99.90;;;;;;4167741;28;19960;-50
2022/01/27 03:31:38;;;;;;;;;;;-2.50;99.90;;;;;;4169361;28;19932;-49
2022/01/27 03:33:41;;;;;;;;;;;-2.60;99.90;;;;;;4162671;28;20015;-49
2022/01/27 03:35:43;;;;;;;;;;;-2.70;99.90;;;;;;4173611;28;19925;-47
2022/01/27 03:37:45;;;;;;;;;;;-2.70;99.90;;;;;;4175994;28;19928;-49
2022/01/27 03:39:47;;;;;;;;;;;-2.80;99.90;;;;;;4176489;28;20384;-48
2022/01/27 03:41:50;;;;;;;;;;;-2.90;99.90;;;;;;4169281;28;19936;-47
2022/01/27 03:43:53;;;;;;;;;;;-2.70;99.90;;;;;;4165350;28;19976;-48
2022/01/27 03:45:55;;;;;;;;;;;-2.50;99.90;;;;;;4173928;28;20130;-47
2022/01/27 03:47:57;;;;;;;;;;;-2.30;99.90;;;;;;4171957;28;19931;-49
2022/01/27 03:49:59;;;;;;;;;;;-2.40;99.90;;;;;;4176305;28;19929;-47
2022/01/27 03:52:01;;;;;;;;;;;-2.30;99.90;;;;;;4179388;28;19929;-49
2022/01/27 03:54:03;;;;;;;;;;;-2.20;99.90;;;;;;4176583;28;19947;-48
2022/01/27 03:56:06;;;;;;;;;;;-2.10;99.90;;;;;;4160857;28;19972;-49
2022/01/27 03:58:08;;;;;;;;;;;-2.10;99.90;;;;;;4177999;28;20450;-49
2022/01/27 04:00:11;;;;;;;;;;;-2.20;99.90;;;;;;4177264;28;20036;-50
2022/01/27 04:02:13;;;;;;;;;;;-2.30;99.90;;;;;;4177530;28;20420;-48
2022/01/27 04:04:15;;;;;;;;;;;-2.20;99.90;;;;;;4166144;28;20015;-47
2022/01/27 04:06:21;;;;;;;;;;;-2.40;99.90;;;;;;4168559;28;19982;-48
2022/01/27 04:08:25;;;;;;;;;;;-2.60;99.90;;;;;;4185453;28;19924;-48
2022/01/27 04:10:27;;;;;;;;;;;-2.60;99.90;;;;;;4177691;28;20023;-49
2022/01/27 04:12:29;;;;;;;;;;;-2.70;99.90;;;;;;4158213;28;19929;-51
2022/01/27 04:14:31;;;;;;;;;;;-2.60;99.90;;;;;;4177872;28;19940;-51
2022/01/27 04:16:33;;;;;;;;;;;-2.60;99.90;;;;;;4168392;28;20319;-50
2022/01/27 04:18:35;;;;;;;;;;;-2.60;99.90;;;;;;4168831;28;19929;-48
2022/01/27 04:20:38;;;;;;;;;;;-2.70;99.90;;;;;;4178429;28;19932;-50
2022/01/27 04:22:40;;;;;;;;;;;-2.70;99.90;;;;;;4168745;28;19932;-48
2022/01/27 04:24:42;;;;;;;;;;;-2.70;99.90;;;;;;4150298;28;20008;-50
2022/01/27 04:26:48;;;;;;;;;;;-2.70;99.90;;;;;;4179173;28;19931;-47
2022/01/27 04:28:52;;;;;;;;;;;-2.70;99.90;;;;;;4176675;28;19924;-51
2022/01/27 04:30:56;;;;;;;;;;;-2.60;99.90;;;;;;4176363;28;19929;-49
2022/01/27 04:33:00;;;;;;;;;;;-2.60;99.90;;;;;;4178245;28;20478;-49
2022/01/27 04:35:05;;;;;;;;;;;-2.50;99.90;;;;;;4176864;28;19979;-48
2022/01/27 04:37:10;;;;;;;;;;;-2.40;99.90;;;;;;4177793;28;20276;-46
2022/01/27 04:39:25;;;;;;;;;;;-2.50;99.90;;;;;;4158694;28;19933;-50
2022/01/27 04:45:52;;;;;;;;;;;-2.70;99.90;;;;;;4177703;28;19929;-48
2022/01/27 04:48:04;;;;;;;;;;;-2.70;99.90;;;;;;4178488;28;19928;-47
2022/01/27 04:50:06;;;;;;;;;;;-2.80;99.90;;;;;;4176404;28;19929;-48
2022/01/27 04:52:09;;;;;;;;;;;-2.90;99.90;;;;;;4176526;28;20468;-50
2022/01/27 04:54:18;;;;;;;;;;;-2.80;99.90;;;;;;4178502;28;19929;-46
2022/01/27 04:56:21;;;;;;;;;;;-2.60;99.90;;;;;;4175531;28;19925;-50
2022/01/27 04:58:30;;;;;;;;;;;-2.70;99.90;;;;;;4176107;28;19933;-50
2022/01/27 05:00:33;;;;;;;;;;;-2.70;99.90;;;;;;4178285;28;19932;-47
2022/01/27 05:02:56;;;;;;;;;;;-2.70;99.90;;;;;;4176463;28;19924;-47
2022/01/27 05:04:58;;;;;;;;;;;-2.80;99.90;;;;;;4172137;28;19936;-51
2022/01/27 05:07:20;;;;;;;;;;;-2.70;99.90;;;;;;4177856;28;20355;-48
2022/01/27 05:09:23;;;;;;;;;;;-2.70;99.90;;;;;;4167610;28;20024;-51
2022/01/27 05:11:37;;;;;;;;;;;-2.70;99.90;;;;;;4176357;28;19932;-50
2022/01/27 05:13:42;;;;;;;;;;;-2.70;99.90;;;;;;4176296;28;19925;-48
2022/01/27 05:15:45;;;;;;;;;;;-2.80;99.90;;;;;;4176694;28;19998;-47
2022/01/27 05:17:47;;;;;;;;;;;-2.90;99.90;;;;;;4174796;28;19925;-47
2022/01/27 05:19:50;;;;;;;;;;;-2.90;99.90;;;;;;4177034;28;19925;-47
2022/01/27 05:21:52;;;;;;;;;;;-3.00;99.90;;;;;;4177481;28;19968;-48
2022/01/27 05:23:55;;;;;;;;;;;-2.90;99.90;;;;;;4176068;28;20019;-49
2022/01/27 05:25:57;;;;;;;;;;;-3.00;99.90;;;;;;4176410;28;19924;-48
2022/01/27 05:28:00;;;;;;;;;;;-3.00;99.90;;;;;;4166122;28;19981;-50
2022/01/27 05:30:02;;;;;;;;;;;-3.00;99.90;;;;;;4171339;28;20022;-49
2022/01/27 05:32:04;;;;;;;;;;;-3.10;99.90;;;;;;4177534;28;19972;-49
2022/01/27 05:34:06;;;;;;;;;;;-3.10;99.90;;;;;;4176166;28;19929;-47
2022/01/27 05:36:08;;;;;;;;;;;-3.10;99.90;;;;;;4157392;28;19929;-50
2022/01/27 05:38:10;;;;;;;;;;;-3.10;99.90;;;;;;4163228;28;20293;-49
2022/01/27 05:40:12;;;;;;;;;;;-2.90;99.90;;;;;;4174861;28;19929;-51
2022/01/27 05:42:14;;;;;;;;;;;-2.70;99.90;;;;;;4175819;28;20401;-49
2022/01/27 05:44:16;;;;;;;;;;;-2.80;99.90;;;;;;4179585;28;19936;-47
2022/01/27 05:46:18;;;;;;;;;;;-2.90;99.90;;;;;;4180573;28;19925;-51
2022/01/27 05:48:20;;;;;;;;;;;-2.80;99.90;;;;;;4174462;28;20632;-48
2022/01/27 05:50:22;;;;;;;;;;;-2.70;99.90;;;;;;4177503;28;19929;-48
2022/01/27 05:52:24;;;;;;;;;;;-2.60;99.90;;;;;;4175615;28;19932;-51
2022/01/27 05:54:26;;;;;;;;;;;-2.80;99.90;;;;;;4174693;28;20297;-50
2022/01/27 05:56:27;;;;;;;;;;;-2.90;99.90;;;;;;4173397;28;19972;-51
2022/01/27 05:58:30;;;;;;;;;;;-2.90;99.90;;;;;;4171818;28;19929;-49
2022/01/27 06:00:32;;;;;;;;;;;-3.00;99.90;;;;;;4159070;28;19940;-50
2022/01/27 06:02:33;;;;;;;;;;;-3.00;99.90;;;;;;4170192;28;20698;-48
2022/01/27 06:04:35;;;;;;;;;;;-2.90;99.90;;;;;;4172455;28;19925;-48
2022/01/27 06:06:37;;;;;;;;;;;-3.00;99.90;;;;;;4162716;28;19936;-50
2022/01/27 06:08:40;;;;;;;;;;;-3.00;99.90;;;;;;4175587;28;19925;-50
2022/01/27 06:10:41;;;;;;;;;;;-2.90;99.90;;;;;;4174610;28;19932;-48
2022/01/27 06:12:47;;;;;;;;;;;-2.90;99.90;;;;;;4174972;28;20020;-50
2022/01/27 06:14:49;;;;;;;;;;;-2.90;99.90;;;;;;4176169;28;19924;-47
2022/01/27 06:16:51;;;;;;;;;;;-2.90;99.90;;;;;;4173736;28;19929;-47
2022/01/27 06:18:53;;;;;;;;;;;-2.90;99.90;;;;;;4187121;28;19932;-49
2022/01/27 06:21:00;;;;;;;;;;;-2.80;99.90;;;;;;4159865;28;20444;-48
2022/01/27 06:23:02;;;;;;;;;;;-2.70;99.90;;;;;;4174008;28;19929;-50
2022/01/27 06:25:08;;;;;;;;;;;-2.70;99.90;;;;;;4158333;28;19964;-51
2022/01/27 06:27:10;;;;;;;;;;;-2.60;99.90;;;;;;4175006;28;19925;-52
2022/01/27 06:29:12;;;;;;;;;;;-2.60;99.90;;;;;;4173513;28;19933;-51
2022/01/27 06:31:14;;;;;;;;;;;-2.60;99.90;;;;;;4160291;28;19975;-52
2022/01/27 06:33:16;;;;;;;;;;;-2.60;99.90;;;;;;4175377;28;19925;-51
2022/01/27 06:35:18;;;;;;;;;;;-2.60;99.90;;;;;;4175383;28;20328;-49
2022/01/27 06:37:20;;;;;;;;;;;-2.60;99.90;;;;;;4176994;28;20408;-52
2022/01/27 06:39:22;;;;;;;;;;;-2.80;99.90;;;;;;4174494;28;19975;-51
2022/01/27 06:41:24;;;;;;;;;;;-2.70;99.90;;;;;;4173739;28;19957;-52
2022/01/27 06:43:26;;;;;;;;;;;-2.60;99.90;;;;;;4174570;28;20543;-51
2022/01/27 06:45:28;;;;;;;;;;;-2.70;99.90;;;;;;4175187;28;20369;-52
2022/01/27 06:47:30;;;;;;;;;;;-2.70;99.90;;;;;;4174681;28;19932;-52
2022/01/27 06:49:32;;;;;;;;;;;-2.70;99.90;;;;;;4172825;28;20446;-52
2022/01/27 06:51:34;;;;;;;;;;;-2.60;99.90;;;;;;4174621;28;19925;-51
2022/01/27 06:53:36;;;;;;;;;;;-2.70;99.90;;;;;;4175289;28;19925;-51
2022/01/27 06:55:38;;;;;;;;;;;-2.60;99.90;;;;;;4182826;28;19948;-52
2022/01/27 06:57:40;;;;;;;;;;;-2.60;99.90;;;;;;4170784;28;20380;-50
2022/01/27 06:59:42;;;;;;;;;;;-2.60;99.90;;;;;;4175652;28;19968;-52
2022/01/27 07:01:44;;;;;;;;;;;-2.60;99.90;;;;;;4175779;28;19928;-52
2022/01/27 07:03:47;;;;;;;;;;;-2.60;99.90;;;;;;4169384;28;20393;-50
2022/01/27 07:05:48;;;;;;;;;;;-2.50;99.90;;;;;;4171873;28;19925;-51
2022/01/27 07:07:50;;;;;;;;;;;-2.50;99.90;;;;;;4176287;28;19924;-50
2022/01/27 07:09:52;;;;;;;;;;;-2.50;99.90;;;;;;4175072;28;19932;-50
2022/01/27 07:11:54;;;;;;;;;;;-2.50;99.90;;;;;;4174641;28;19929;-50
2022/01/27 07:13:57;;;;;;;;;;;-2.50;99.90;;;;;;4158776;28;19925;-50
2022/01/27 07:15:58;;;;;;;;;;;-2.50;99.90;;;;;;4172030;28;20309;-51
2022/01/27 07:18:00;;;;;;;;;;;-2.50;99.90;;;;;;4167049;28;20024;-51
2022/01/27 07:20:02;;;;;;;;;;;-2.50;99.90;;;;;;4175306;28;19968;-49
2022/01/27 07:22:04;;;;;;;;;;;-2.50;99.90;;;;;;4174880;28;19968;-52
2022/01/27 07:24:06;;;;;;;;;;;-2.40;99.90;;;;;;4178422;28;19970;-52
2022/01/27 07:26:09;;;;;;;;;;;-2.30;99.90;;;;;;4178362;28;19971;-51
2022/01/27 07:28:11;;;;;;;;;;;-2.30;99.90;;;;;;4175608;28;19932;-51
2022/01/27 07:30:13;;;;;;;;;;;-2.30;99.90;;;;;;4177980;28;19935;-51
2022/01/27 07:32:15;;;;;;;;;;;-2.20;99.90;;;;;;4167810;28;20039;-50
2022/01/27 07:34:20;;;;;;;;;;;-2.20;99.90;;;;;;4172778;28;19932;-52
2022/01/27 07:36:22;;;;;;;;;;;-2.10;99.90;;;;;;4179506;28;20355;-50
2022/01/27 07:38:26;;;;;;;;;;;-2.10;99.90;;;;;;4177991;28;19960;-52
2022/01/27 07:40:28;;;;;;;;;;;-2.10;99.90;;;;;;4177471;28;19929;-52
2022/01/27 07:42:47;;;;;;;;;;;-2.00;99.90;;;;;;4165880;28;20288;-51
2022/01/27 07:44:49;;;;;;;;;;;-1.90;99.90;;;;;;4178699;28;19932;-49
2022/01/27 07:46:51;;;;;;;;;;;-2.10;99.90;;;;;;4177618;28;19975;-52
2022/01/27 07:48:53;;;;;;;;;;;-2.00;99.90;;;;;;4179469;28;19987;-51
2022/01/27 07:50:55;;;;;;;;;;;-1.90;99.90;;;;;;4168060;28;19929;-51
2022/01/27 07:52:57;;;;;;;;;;;-1.80;99.90;;;;;;4169808;28;19933;-52
2022/01/27 07:55:00;;;;;;;;;;;-1.80;99.90;;;;;;4179378;28;19928;-52
2022/01/27 07:57:03;;;;;;;;;;;-1.80;99.90;;;;;;4168248;28;19955;-53
2022/01/27 07:59:05;;;;;;;;;;;-1.80;99.90;;;;;;4169719;28;19964;-53
2022/01/27 08:01:08;;;;;;;;;;;-1.70;99.90;;;;;;4163016;28;19925;-53
2022/01/27 08:03:10;;;;;;;;;;;-1.70;99.90;;;;;;4176404;28;19925;-53
2022/01/27 08:05:12;;;;;;;;;;;-1.70;99.90;;;;;;4175974;28;20381;-53
2022/01/27 08:07:14;;;;;;;;;;;-1.70;99.90;;;;;;4163000;28;19964;-53
2022/01/27 08:09:17;;;;;;;;;;;-1.70;99.90;;;;;;4176289;28;19924;-53
2022/01/27 08:11:19;;;;;;;;;;;-1.60;99.90;;;;;;4176817;28;19929;-53
2022/01/27 08:13:21;;;;;;;;;;;-1.60;99.90;;;;;;4179098;28;20447;-54
2022/01/27 08:15:23;;;;;;;;;;;-1.60;99.90;;;;;;4158331;28;19968;-53
2022/01/27 08:17:25;;;;;;;;;;;-1.50;99.90;;;;;;4176098;28;20467;-52
2022/01/27 08:19:27;;;;;;;;;;;-1.40;99.90;;;;;;4178229;28;19925;-52
2022/01/27 08:21:29;;;;;;;;;;;-1.30;99.90;;;;;;4174419;28;19929;-52
2022/01/27 08:23:31;;;;;;;;;;;-1.20;99.90;;;;;;4176995;28;19939;-54
2022/01/27 08:25:33;;;;;;;;;;;-1.20;99.90;;;;;;4176588;28;19979;-53
2022/01/27 08:27:38;;;;;;;;;;;-1.10;99.90;;;;;;4173410;28;20035;-53
2022/01/27 08:29:44;;;;;;;;;;;-1.00;99.90;;;;;;4178193;28;19940;-53
2022/01/27 08:31:59;;;;;;;;;;;-0.90;99.90;;;;;;4176233;28;19925;-54
2022/01/27 08:34:04;;;;;;;;;;;-0.80;99.90;;;;;;4175014;28;19978;-52
2022/01/27 08:36:06;;;;;;;;;;;-0.80;99.90;;;;;;4176922;28;19925;-52
2022/01/27 08:38:08;;;;;;;;;;;-0.70;99.90;;;;;;4175454;28;19952;-51
2022/01/27 08:40:11;;;;;;;;;;;-0.60;99.90;;;;;;4176718;28;20686;-53
2022/01/27 08:42:33;;;;;;;;;;;-0.70;99.90;;;;;;4177975;28;19928;-53
2022/01/27 08:44:36;;;;;;;;;;;-0.60;99.90;;;;;;4178358;28;19986;-52
2022/01/27 08:46:38;;;;;;;;;;;-0.70;99.90;;;;;;4176144;28;19932;-54
2022/01/27 08:48:42;;;;;;;;;;;-0.70;99.90;;;;;;4175261;28;20504;-53
2022/01/27 08:50:51;;;;;;;;;;;-0.60;99.90;;;;;;4172538;28;19932;-53
2022/01/27 08:53:13;;;;;;;;;;;-0.60;99.90;;;;;;4182654;28;20011;-53
2022/01/27 08:55:16;;;;;;;;;;;-0.70;99.90;;;;;;4176948;28;19929;-51
2022/01/27 08:57:18;;;;;;;;;;;-0.60;99.90;;;;;;4176636;28;19925;-53
2022/01/27 08:59:20;;;;;;;;;;;-0.50;99.90;;;;;;4169058;28;19929;-52
2022/01/27 09:01:24;;;;;;;;;;;-0.40;99.90;;;;;;4176460;28;20031;-52
2022/01/27 09:03:27;;;;;;;;;;;-0.30;99.90;;;;;;4177850;28;20015;-53
2022/01/27 09:05:30;;;;;;;;;;;-0.20;99.90;;;;;;4178175;28;19950;-52
2022/01/27 09:07:34;;;;;;;;;;;-0.20;99.90;;;;;;4172005;28;19951;-53
2022/01/27 09:09:36;;;;;;;;;;;-0.10;99.90;;;;;;4177861;28;19933;-52
2022/01/27 09:11:39;;;;;;;;;;;0.10;99.90;;;;;;4166151;28;19929;-52
2022/01/27 09:13:42;;;;;;;;;;;0.40;99.90;;;;;;4167247;28;20040;-52
2022/01/27 09:15:44;;;;;;;;;;;0.40;99.90;;;;;;4168487;28;19933;-53
2022/01/27 09:17:46;;;;;;;;;;;0.30;99.90;;;;;;4174789;28;20342;-52
2022/01/27 09:19:48;;;;;;;;;;;0.40;99.90;;;;;;4175847;28;20023;-52
2022/01/27 09:21:50;;;;;;;;;;;0.50;99.90;;;;;;4176316;28;19975;-53
2022/01/27 09:23:57;;;;;;;;;;;0.60;99.90;;;;;;4166495;28;19929;-51
2022/01/27 09:26:05;;;;;;;;;;;0.80;99.90;;;;;;4172330;28;20379;-53
2022/01/27 09:28:07;;;;;;;;;;;1.00;99.90;;;;;;4177540;28;19968;-53
2022/01/27 09:30:10;;;;;;;;;;;1.00;99.90;;;;;;4175487;28;19935;-54
2022/01/27 09:32:12;;;;;;;;;;;1.10;99.90;;;;;;4174319;28;19957;-53
2022/01/27 09:34:14;;;;;;;;;;;1.30;99.90;;;;;;4177447;28;20294;-52
2022/01/27 09:36:16;;;;;;;;;;;1.30;99.90;;;;;;4176513;28;19925;-52
2022/01/27 09:38:18;;;;;;;;;;;1.40;99.90;;;;;;4175309;28;19931;-53
2022/01/27 09:40:20;;;;;;;;;;;1.50;99.90;;;;;;4177846;28;19925;-52
2022/01/27 09:42:24;;;;;;;;;;;1.50;99.90;;;;;;4175869;28;19975;-51
2022/01/27 09:44:29;;;;;;;;;;;1.50;99.90;;;;;;4174454;28;19925;-53
2022/01/27 09:46:31;;;;;;;;;;;1.60;99.90;;;;;;4177339;28;19936;-52
2022/01/27 09:48:40;;;;;;;;;;;1.60;99.90;;;;;;4163492;28;19925;-53
2022/01/27 09:51:00;;;;;;;;;;;1.70;99.90;;;;;;4165656;28;20312;-53
2022/01/27 09:53:02;;;;;;;;;;;1.80;99.90;;;;;;4176665;28;19928;-53
2022/01/27 09:55:04;;;;;;;;;;;2.00;99.90;;;;;;4176961;28;19964;-52
2022/01/27 09:57:06;;;;;;;;;;;2.00;99.90;;;;;;4174049;28;20023;-52
2022/01/27 09:59:09;;;;;;;;;;;2.10;99.90;;;;;;4177203;28;19932;-52
2022/01/27 10:01:11;;;;;;;;;;;2.10;99.90;;;;;;4177388;28;19963;-52
2022/01/27 10:03:14;;;;;;;;;;;2.20;99.90;;;;;;4173894;28;20292;-52
2022/01/27 10:05:21;;;;;;;;;;;2.30;99.90;;;;;;4177463;28;19997;-53
2022/01/27 10:07:29;;;;;;;;;;;2.30;99.90;;;;;;4170058;28;20038;-53
2022/01/27 10:09:31;;;;;;;;;;;2.40;99.90;;;;;;4169908;28;19929;-53
2022/01/27 10:11:33;;;;;;;;;;;2.50;99.90;;;;;;4177346;28;19965;-52
2022/01/27 10:13:39;;;;;;;;;;;2.60;99.90;;;;;;4175905;28;19925;-53
2022/01/27 10:15:43;;;;;;;;;;;2.70;99.90;;;;;;4173449;28;19964;-53
2022/01/27 10:18:03;;;;;;;;;;;2.90;99.90;;;;;;4175814;28;19971;-52
2022/01/27 10:20:18;;;;;;;;;;;3.00;99.90;;;;;;4177042;28;19929;-52
2022/01/27 10:22:20;;;;;;;;;;;3.20;99.90;;;;;;4173608;28;20023;-53
2022/01/27 10:24:26;;;;;;;;;;;3.30;99.90;;;;;;4175548;28;19972;-52
2022/01/27 10:26:41;;;;;;;;;;;3.50;99.90;;;;;;4176937;28;19936;-53
2022/01/27 10:30:57;;;;;;;;;;;3.70;99.90;;;;;;4176039;28;19978;-52
2022/01/27 10:33:00;;;;;;;;;;;3.80;99.90;;;;;;4177356;28;19929;-52
2022/01/27 10:35:02;;;;;;;;;;;4.00;99.90;;;;;;4175229;28;19925;-53
2022/01/27 10:37:04;;;;;;;;;;;4.00;99.90;;;;;;4174037;28;19960;-53
2022/01/27 10:39:08;;;;;;;;;;;4.10;99.90;;;;;;4175820;28;20484;-52
2022/01/27 10:41:10;;;;;;;;;;;4.40;99.90;;;;;;4168913;28;19979;-52
2022/01/27 10:43:20;;;;;;;;;;;4.50;99.90;;;;;;4173905;28;19968;-51
2022/01/27 10:45:22;;;;;;;;;;;4.50;99.90;;;;;;4170154;28;19951;-53
2022/01/27 10:47:31;;;;;;;;;;;4.70;99.90;;;;;;4172183;28;19967;-53
2022/01/27 10:49:36;;;;;;;;;;;5.30;99.90;;;;;;4174446;28;20024;-53
2022/01/27 10:51:44;;;;;;;;;;;5.60;99.90;;;;;;4169414;28;19925;-52
2022/01/27 10:53:49;;;;;;;;;;;5.50;99.90;;;;;;4173207;28;19929;-52
2022/01/27 10:56:05;;;;;;;;;;;5.60;99.90;;;;;;4174855;28;19947;-53
2022/01/27 10:58:25;;;;;;;;;;;5.90;99.90;;;;;;4177862;28;19935;-53
2022/01/27 11:00:31;;;;;;;;;;;6.00;99.90;;;;;;4170469;28;19933;-51
2022/01/27 11:02:46;;;;;;;;;;;6.00;99.90;;;;;;4175312;28;19925;-52
2022/01/27 11:04:51;;;;;;;;;;;6.10;99.90;;;;;;4178035;28;19935;-53
2022/01/27 11:06:57;;;;;;;;;;;6.20;99.90;;;;;;4176850;28;19932;-53
2022/01/27 11:09:05;;;;;;;;;;;6.50;99.90;;;;;;4172923;28;19960;-52
2022/01/27 11:11:07;;;;;;;;;;;6.50;99.90;;;;;;4173150;28;19970;-53
2022/01/27 11:13:09;;;;;;;;;;;6.80;99.90;;;;;;4179432;28;19925;-53
2022/01/27 11:15:12;;;;;;;;;;;6.90;99.90;;;;;;4177604;28;19928;-52
2022/01/27 11:17:20;;;;;;;;;;;6.80;99.90;;;;;;4178740;28;19929;-52
2022/01/27 11:21:32;;;;;;;;;;;7.50;99.90;;;;;;4171039;28;19972;-54
2022/01/27 11:25:51;;;;;;;;;;;7.40;99.90;;;;;;4178551;28;20133;-54
2022/01/27 11:27:54;;;;;;;;;;;7.40;99.90;;;;;;4178109;28;19929;-52
2022/01/27 11:29:58;;;;;;;;;;;7.50;99.90;;;;;;4179587;28;19932;-52
2022/01/27 11:32:07;;;;;;;;;;;7.60;99.90;;;;;;4168632;28;19928;-53
2022/01/27 11:34:10;;;;;;;;;;;7.80;99.90;;;;;;4171848;28;20390;-52
2022/01/27 11:36:15;;;;;;;;;;;7.90;99.90;;;;;;4178834;28;20051;-53
2022/01/27 11:38:23;;;;;;;;;;;8.10;99.90;;;;;;4180667;28;19932;-54
2022/01/27 11:40:37;;;;;;;;;;;8.20;99.90;;;;;;4178579;28;19976;-52
2022/01/27 11:42:43;;;;;;;;;;;8.10;99.90;;;;;;4178642;28;19926;-51
2022/01/27 11:44:46;;;;;;;;;;;8.40;99.90;;;;;;4177735;28;19964;-51
2022/01/27 11:49:31;;;;;;;;;;;8.70;99.90;;;;;;4177251;28;20453;-53
2022/01/27 11:51:33;;;;;;;;;;;8.80;99.90;;;;;;4178719;28;19967;-53
2022/01/27 11:53:45;;;;;;;;;;;9.10;99.90;;;;;;4174596;28;20019;-53
2022/01/27 11:55:47;;;;;;;;;;;9.10;99.90;;;;;;4174397;28;19982;-53
2022/01/27 11:57:49;;;;;;;;;;;9.00;99.90;;;;;;4174060;28;19929;-53
2022/01/27 12:00:06;;;;;;;;;;;9.20;99.90;;;;;;4174008;28;19929;-53
2022/01/27 12:02:08;;;;;;;;;;;9.20;99.90;;;;;;4171774;28;19933;-54
2022/01/27 12:04:13;;;;;;;;;;;9.50;99.90;;;;;;4176373;28;20002;-53
2022/01/27 12:06:16;;;;;;;;;;;9.40;99.90;;;;;;4179135;28;19933;-52
2022/01/27 12:08:20;;;;;;;;;;;9.40;99.90;;;;;;4175353;28;19974;-53
2022/01/27 12:10:45;;;;;;;;;;;9.50;99.90;;;;;;4162068;28;19925;-53
2022/01/27 12:12:47;;;;;;;;;;;9.50;99.90;;;;;;4177138;28;19924;-53
2022/01/27 12:14:49;;;;;;;;;;;9.60;99.90;;;;;;4161083;28;19926;-54
2022/01/27 12:17:06;;;;;;;;;;;9.60;99.90;;;;;;4163390;28;19929;-54
2022/01/27 12:19:12;;;;;;;;;;;9.60;99.90;;;;;;4166035;28;19979;-53
2022/01/27 12:21:34;;;;;;;;;;;9.80;99.90;;;;;;4179584;28;20016;-54
2022/01/27 12:23:56;;;;;;;;;;;10.10;99.90;;;;;;4174686;28;20348;-53
2022/01/27 12:25:58;;;;;;;;;;;9.70;99.90;;;;;;4178225;28;19951;-54
2022/01/27 12:28:00;;;;;;;;;;;10.00;99.90;;;;;;4176822;28;19948;-53
2022/01/27 12:30:03;;;;;;;;;;;9.90;99.90;;;;;;4176866;28;19948;-53
2022/01/27 12:32:10;;;;;;;;;;;9.90;99.90;;;;;;4180270;28;19929;-53
2022/01/27 12:34:12;;;;;;;;;;;10.10;99.90;;;;;;4173510;28;19929;-52
2022/01/27 12:36:20;;;;;;;;;;;10.10;99.90;;;;;;4173993;28;19975;-53
2022/01/27 12:38:22;;;;;;;;;;;10.00;99.90;;;;;;4177028;28;19968;-52
2022/01/27 12:40:29;;;;;;;;;;;10.10;99.90;;;;;;4175792;28;20612;-53
2022/01/27 12:42:36;;;;;;;;;;;10.20;99.90;;;;;;4176900;28;20249;-53
2022/01/27 12:44:41;;;;;;;;;;;10.40;99.90;;;;;;4159252;28;19925;-53
2022/01/27 12:47:03;;;;;;;;;;;10.40;99.90;;;;;;4175196;28;19924;-52
2022/01/27 12:49:05;;;;;;;;;;;10.30;99.90;;;;;;4178099;28;19925;-52
2022/01/27 12:51:08;;;;;;;;;;;10.30;99.90;;;;;;4162522;28;20381;-53
2022/01/27 12:53:12;;;;;;;;;;;10.10;99.90;;;;;;4174966;28;20011;-53